sensor_id;sensor_type;location;lat;lon;timestamp;P1;durP1;ratioP1;P2;durP2;ratioP2
9968;SDS011;5025;48.890;9.278;2024-01-25T00:01:05;12.50;;;3.93;;
9968;SDS011;5025;48.890;9.278;2024-01-25T00:03:30;15.77;;;4.20;;
9968;SDS011;5025;48.890;9.278;2024-01-25T00:05:56;15.73;;;4.40;;
9968;SDS011;5025;48.890;9.278;2024-01-25T00:08:21;15.10;;;3.77;;
9968;SDS011;5025;48.890;9.278;2024-01-25T00:10:47;14.97;;;4.10;;
9968;SDS011;5025;48.890;9.278;2024-01-25T00:13:12;14.13;;;3.67;;
9968;SDS011;5025;48.890;9.278;2024-01-25T00:15:37;13.03;;;3.90;;
9968;SDS011;5025;48.890;9.278;2024-01-25T00:18:03;14.07;;;3.67;;
9968;SDS011;5025;48.890;9.278;2024-01-25T00:20:28;13.80;;;3.87;;
9968;SDS011;5025;48.890;9.278;2024-01-25T00:22:53;15.90;;;4.17;;
9968;SDS011;5025;48.890;9.278;2024-01-25T00:25:18;17.47;;;4.47;;
9968;SDS011;5025;48.890;9.278;2024-01-25T00:27:44;15.43;;;4.70;;
9968;SDS011;5025;48.890;9.278;2024-01-25T00:30:10;17.60;;;4.67;;
9968;SDS011;5025;48.890;9.278;2024-01-25T00:32:35;16.20;;;3.63;;
9968;SDS011;5025;48.890;9.278;2024-01-25T00:35:01;14.63;;;3.90;;
9968;SDS011;5025;48.890;9.278;2024-01-25T00:37:27;14.77;;;4.03;;
9968;SDS011;5025;48.890;9.278;2024-01-25T00:39:53;14.63;;;4.30;;
9968;SDS011;5025;48.890;9.278;2024-01-25T00:42:18;14.70;;;4.20;;
9968;SDS011;5025;48.890;9.278;2024-01-25T00:44:47;16.10;;;3.90;;
9968;SDS011;5025;48.890;9.278;2024-01-25T00:47:12;13.70;;;3.90;;
9968;SDS011;5025;48.890;9.278;2024-01-25T00:49:38;14.33;;;4.57;;
9968;SDS011;5025;48.890;9.278;2024-01-25T00:52:04;15.93;;;4.13;;
9968;SDS011;5025;48.890;9.278;2024-01-25T00:54:30;17.17;;;4.43;;
9968;SDS011;5025;48.890;9.278;2024-01-25T00:56:55;13.23;;;4.57;;
9968;SDS011;5025;48.890;9.278;2024-01-25T00:59:21;16.43;;;3.97;;
9968;SDS011;5025;48.890;9.278;2024-01-25T01:01:48;16.40;;;4.60;;
9968;SDS011;5025;48.890;9.278;2024-01-25T01:04:17;15.80;;;3.73;;
9968;SDS011;5025;48.890;9.278;2024-01-25T01:06:43;16.63;;;4.50;;
9968;SDS011;5025;48.890;9.278;2024-01-25T01:09:09;18.67;;;4.17;;
9968;SDS011;5025;48.890;9.278;2024-01-25T01:11:34;14.53;;;3.93;;
9968;SDS011;5025;48.890;9.278;2024-01-25T01:14:01;14.20;;;3.93;;
9968;SDS011;5025;48.890;9.278;2024-01-25T01:16:26;15.70;;;3.73;;
9968;SDS011;5025;48.890;9.278;2024-01-25T01:18:52;15.10;;;4.47;;
9968;SDS011;5025;48.890;9.278;2024-01-25T01:21:17;17.73;;;4.30;;
9968;SDS011;5025;48.890;9.278;2024-01-25T01:23:42;21.60;;;4.40;;
9968;SDS011;5025;48.890;9.278;2024-01-25T01:26:07;16.33;;;4.20;;
9968;SDS011;5025;48.890;9.278;2024-01-25T01:28:33;17.20;;;4.07;;
9968;SDS011;5025;48.890;9.278;2024-01-25T01:30:58;18.23;;;4.00;;
9968;SDS011;5025;48.890;9.278;2024-01-25T01:33:23;13.97;;;4.03;;
9968;SDS011;5025;48.890;9.278;2024-01-25T01:35:48;13.07;;;4.00;;
9968;SDS011;5025;48.890;9.278;2024-01-25T01:38:14;14.60;;;4.40;;
9968;SDS011;5025;48.890;9.278;2024-01-25T01:40:39;17.53;;;4.33;;
9968;SDS011;5025;48.890;9.278;2024-01-25T01:43:04;17.87;;;4.50;;
9968;SDS011;5025;48.890;9.278;2024-01-25T01:45:30;16.90;;;4.10;;
9968;SDS011;5025;48.890;9.278;2024-01-25T01:47:55;12.70;;;3.67;;
9968;SDS011;5025;48.890;9.278;2024-01-25T01:50:21;13.00;;;3.77;;
9968;SDS011;5025;48.890;9.278;2024-01-25T01:52:47;17.87;;;3.97;;
9968;SDS011;5025;48.890;9.278;2024-01-25T01:55:15;17.87;;;4.83;;
9968;SDS011;5025;48.890;9.278;2024-01-25T01:57:41;18.43;;;4.57;;
9968;SDS011;5025;48.890;9.278;2024-01-25T02:00:08;18.03;;;4.20;;
9968;SDS011;5025;48.890;9.278;2024-01-25T02:02:34;12.13;;;3.00;;
9968;SDS011;5025;48.890;9.278;2024-01-25T02:05:00;13.90;;;3.90;;
9968;SDS011;5025;48.890;9.278;2024-01-25T02:07:25;14.33;;;4.13;;
9968;SDS011;5025;48.890;9.278;2024-01-25T02:09:51;16.07;;;4.10;;
9968;SDS011;5025;48.890;9.278;2024-01-25T02:12:16;18.77;;;4.77;;
9968;SDS011;5025;48.890;9.278;2024-01-25T02:14:42;15.43;;;4.03;;
9968;SDS011;5025;48.890;9.278;2024-01-25T02:17:07;18.90;;;4.47;;
9968;SDS011;5025;48.890;9.278;2024-01-25T02:19:32;19.77;;;3.70;;
9968;SDS011;5025;48.890;9.278;2024-01-25T02:21:58;14.07;;;3.70;;
9968;SDS011;5025;48.890;9.278;2024-01-25T02:24:23;14.23;;;4.13;;
9968;SDS011;5025;48.890;9.278;2024-01-25T02:26:49;13.47;;;3.60;;
9968;SDS011;5025;48.890;9.278;2024-01-25T02:29:14;12.20;;;3.23;;
9968;SDS011;5025;48.890;9.278;2024-01-25T02:31:39;14.23;;;3.60;;
9968;SDS011;5025;48.890;9.278;2024-01-25T02:34:05;16.60;;;4.10;;
9968;SDS011;5025;48.890;9.278;2024-01-25T02:36:30;12.77;;;3.73;;
9968;SDS011;5025;48.890;9.278;2024-01-25T02:38:55;12.83;;;3.90;;
9968;SDS011;5025;48.890;9.278;2024-01-25T02:41:20;15.93;;;4.20;;
9968;SDS011;5025;48.890;9.278;2024-01-25T02:43:46;14.93;;;4.10;;
9968;SDS011;5025;48.890;9.278;2024-01-25T02:46:11;15.33;;;3.90;;
9968;SDS011;5025;48.890;9.278;2024-01-25T02:48:36;13.27;;;3.37;;
9968;SDS011;5025;48.890;9.278;2024-01-25T02:51:01;13.23;;;3.80;;
9968;SDS011;5025;48.890;9.278;2024-01-25T02:53:26;14.57;;;4.00;;
9968;SDS011;5025;48.890;9.278;2024-01-25T02:55:52;15.97;;;4.03;;
9968;SDS011;5025;48.890;9.278;2024-01-25T02:58:17;14.60;;;3.90;;
9968;SDS011;5025;48.890;9.278;2024-01-25T03:00:42;18.00;;;4.10;;
9968;SDS011;5025;48.890;9.278;2024-01-25T03:03:07;14.80;;;3.87;;
9968;SDS011;5025;48.890;9.278;2024-01-25T03:05:33;11.97;;;3.53;;
9968;SDS011;5025;48.890;9.278;2024-01-25T03:07:59;17.80;;;4.23;;
9968;SDS011;5025;48.890;9.278;2024-01-25T03:10:25;14.50;;;4.03;;
9968;SDS011;5025;48.890;9.278;2024-01-25T03:12:50;15.83;;;4.27;;
9968;SDS011;5025;48.890;9.278;2024-01-25T03:15:15;18.43;;;4.13;;
9968;SDS011;5025;48.890;9.278;2024-01-25T03:17:40;12.17;;;3.40;;
9968;SDS011;5025;48.890;9.278;2024-01-25T03:20:06;16.80;;;4.37;;
9968;SDS011;5025;48.890;9.278;2024-01-25T03:22:32;12.90;;;3.10;;
9968;SDS011;5025;48.890;9.278;2024-01-25T03:24:57;15.37;;;4.03;;
9968;SDS011;5025;48.890;9.278;2024-01-25T03:27:22;15.50;;;3.57;;
9968;SDS011;5025;48.890;9.278;2024-01-25T03:29:47;17.00;;;4.83;;
9968;SDS011;5025;48.890;9.278;2024-01-25T03:32:13;13.27;;;3.83;;
9968;SDS011;5025;48.890;9.278;2024-01-25T03:34:38;16.37;;;4.10;;
9968;SDS011;5025;48.890;9.278;2024-01-25T03:37:03;14.70;;;4.30;;
9968;SDS011;5025;48.890;9.278;2024-01-25T03:39:29;14.53;;;4.03;;
9968;SDS011;5025;48.890;9.278;2024-01-25T03:41:54;12.13;;;3.43;;
9968;SDS011;5025;48.890;9.278;2024-01-25T03:44:19;13.47;;;3.67;;
9968;SDS011;5025;48.890;9.278;2024-01-25T03:46:44;14.93;;;3.93;;
9968;SDS011;5025;48.890;9.278;2024-01-25T03:49:10;12.03;;;4.03;;
9968;SDS011;5025;48.890;9.278;2024-01-25T03:51:35;18.03;;;3.90;;
9968;SDS011;5025;48.890;9.278;2024-01-25T03:54:00;14.23;;;3.70;;
9968;SDS011;5025;48.890;9.278;2024-01-25T03:56:26;13.07;;;3.50;;
9968;SDS011;5025;48.890;9.278;2024-01-25T03:58:51;16.60;;;4.07;;
9968;SDS011;5025;48.890;9.278;2024-01-25T04:01:17;12.60;;;3.60;;
9968;SDS011;5025;48.890;9.278;2024-01-25T04:03:42;13.43;;;3.53;;
9968;SDS011;5025;48.890;9.278;2024-01-25T04:06:07;14.50;;;3.80;;
9968;SDS011;5025;48.890;9.278;2024-01-25T04:08:33;18.97;;;4.50;;
9968;SDS011;5025;48.890;9.278;2024-01-25T04:10:58;15.23;;;4.17;;
9968;SDS011;5025;48.890;9.278;2024-01-25T04:13:23;14.57;;;3.87;;
9968;SDS011;5025;48.890;9.278;2024-01-25T04:15:49;18.57;;;4.00;;
9968;SDS011;5025;48.890;9.278;2024-01-25T04:18:14;13.10;;;3.60;;
9968;SDS011;5025;48.890;9.278;2024-01-25T04:20:40;18.23;;;4.20;;
9968;SDS011;5025;48.890;9.278;2024-01-25T04:23:06;16.17;;;4.30;;
9968;SDS011;5025;48.890;9.278;2024-01-25T04:25:31;13.70;;;3.77;;
9968;SDS011;5025;48.890;9.278;2024-01-25T04:27:57;14.50;;;4.27;;
9968;SDS011;5025;48.890;9.278;2024-01-25T04:30:22;13.73;;;3.83;;
9968;SDS011;5025;48.890;9.278;2024-01-25T04:32:47;15.37;;;3.73;;
9968;SDS011;5025;48.890;9.278;2024-01-25T04:35:13;13.77;;;3.53;;
9968;SDS011;5025;48.890;9.278;2024-01-25T04:37:38;15.70;;;4.17;;
9968;SDS011;5025;48.890;9.278;2024-01-25T04:40:03;14.07;;;4.20;;
9968;SDS011;5025;48.890;9.278;2024-01-25T04:42:30;14.43;;;3.40;;
9968;SDS011;5025;48.890;9.278;2024-01-25T04:44:55;14.30;;;3.60;;
9968;SDS011;5025;48.890;9.278;2024-01-25T04:47:20;19.30;;;4.80;;
9968;SDS011;5025;48.890;9.278;2024-01-25T04:49:46;14.17;;;3.93;;
9968;SDS011;5025;48.890;9.278;2024-01-25T04:52:11;15.73;;;4.03;;
9968;SDS011;5025;48.890;9.278;2024-01-25T04:54:37;17.37;;;4.30;;
9968;SDS011;5025;48.890;9.278;2024-01-25T04:57:02;16.60;;;3.67;;
9968;SDS011;5025;48.890;9.278;2024-01-25T04:59:31;17.37;;;3.93;;
9968;SDS011;5025;48.890;9.278;2024-01-25T05:01:56;11.30;;;3.43;;
9968;SDS011;5025;48.890;9.278;2024-01-25T05:04:23;16.73;;;4.47;;
9968;SDS011;5025;48.890;9.278;2024-01-25T05:06:48;16.17;;;4.00;;
9968;SDS011;5025;48.890;9.278;2024-01-25T05:09:13;11.67;;;3.60;;
9968;SDS011;5025;48.890;9.278;2024-01-25T05:11:39;18.77;;;4.13;;
9968;SDS011;5025;48.890;9.278;2024-01-25T05:14:05;14.50;;;3.53;;
9968;SDS011;5025;48.890;9.278;2024-01-25T05:16:31;16.83;;;4.37;;
9968;SDS011;5025;48.890;9.278;2024-01-25T05:18:56;16.63;;;3.90;;
9968;SDS011;5025;48.890;9.278;2024-01-25T05:21:21;16.00;;;4.40;;
9968;SDS011;5025;48.890;9.278;2024-01-25T05:23:46;14.23;;;4.07;;
9968;SDS011;5025;48.890;9.278;2024-01-25T05:26:12;17.20;;;3.73;;
9968;SDS011;5025;48.890;9.278;2024-01-25T05:28:37;14.83;;;4.60;;
9968;SDS011;5025;48.890;9.278;2024-01-25T05:31:02;12.83;;;3.50;;
9968;SDS011;5025;48.890;9.278;2024-01-25T05:33:28;14.80;;;3.60;;
9968;SDS011;5025;48.890;9.278;2024-01-25T05:35:53;12.53;;;3.60;;
9968;SDS011;5025;48.890;9.278;2024-01-25T05:38:19;12.73;;;3.50;;
9968;SDS011;5025;48.890;9.278;2024-01-25T05:40:44;13.60;;;4.17;;
9968;SDS011;5025;48.890;9.278;2024-01-25T05:43:09;15.43;;;3.50;;
9968;SDS011;5025;48.890;9.278;2024-01-25T05:45:34;13.63;;;3.83;;
9968;SDS011;5025;48.890;9.278;2024-01-25T05:48:00;17.33;;;4.37;;
9968;SDS011;5025;48.890;9.278;2024-01-25T05:50:25;11.87;;;3.97;;
9968;SDS011;5025;48.890;9.278;2024-01-25T05:52:51;14.57;;;4.37;;
9968;SDS011;5025;48.890;9.278;2024-01-25T05:55:16;15.17;;;4.33;;
9968;SDS011;5025;48.890;9.278;2024-01-25T05:57:42;15.68;;;4.35;;
9968;SDS011;5025;48.890;9.278;2024-01-25T06:00:08;13.33;;;4.33;;
9968;SDS011;5025;48.890;9.278;2024-01-25T06:02:36;10.03;;;3.60;;
9968;SDS011;5025;48.890;9.278;2024-01-25T06:05:01;8.63;;;3.63;;
9968;SDS011;5025;48.890;9.278;2024-01-25T06:07:27;5.27;;;3.07;;
9968;SDS011;5025;48.890;9.278;2024-01-25T06:09:52;7.43;;;3.40;;
9968;SDS011;5025;48.890;9.278;2024-01-25T06:12:18;6.27;;;2.90;;
9968;SDS011;5025;48.890;9.278;2024-01-25T06:14:44;4.67;;;2.80;;
9968;SDS011;5025;48.890;9.278;2024-01-25T06:17:09;5.70;;;2.80;;
9968;SDS011;5025;48.890;9.278;2024-01-25T06:19:35;5.30;;;2.37;;
9968;SDS011;5025;48.890;9.278;2024-01-25T06:22:00;5.33;;;2.70;;
9968;SDS011;5025;48.890;9.278;2024-01-25T06:24:25;7.53;;;2.97;;
9968;SDS011;5025;48.890;9.278;2024-01-25T06:26:51;7.27;;;3.13;;
9968;SDS011;5025;48.890;9.278;2024-01-25T06:29:17;6.60;;;3.23;;
9968;SDS011;5025;48.890;9.278;2024-01-25T06:31:43;7.10;;;3.20;;
9968;SDS011;5025;48.890;9.278;2024-01-25T06:34:09;7.53;;;3.13;;
9968;SDS011;5025;48.890;9.278;2024-01-25T06:36:34;7.03;;;3.40;;
9968;SDS011;5025;48.890;9.278;2024-01-25T06:38:59;8.40;;;3.60;;
9968;SDS011;5025;48.890;9.278;2024-01-25T06:41:25;10.97;;;3.70;;
9968;SDS011;5025;48.890;9.278;2024-01-25T06:43:50;5.67;;;3.30;;
9968;SDS011;5025;48.890;9.278;2024-01-25T06:46:18;11.90;;;4.10;;
9968;SDS011;5025;48.890;9.278;2024-01-25T06:48:43;10.60;;;4.00;;
9968;SDS011;5025;48.890;9.278;2024-01-25T06:51:08;10.03;;;3.90;;
9968;SDS011;5025;48.890;9.278;2024-01-25T06:53:34;9.73;;;3.70;;
9968;SDS011;5025;48.890;9.278;2024-01-25T06:55:59;9.73;;;3.70;;
9968;SDS011;5025;48.890;9.278;2024-01-25T06:58:24;6.67;;;2.83;;
9968;SDS011;5025;48.890;9.278;2024-01-25T07:00:50;9.83;;;5.07;;
9968;SDS011;5025;48.890;9.278;2024-01-25T07:03:15;8.37;;;5.13;;
9968;SDS011;5025;48.890;9.278;2024-01-25T07:05:40;10.57;;;4.80;;
9968;SDS011;5025;48.890;9.278;2024-01-25T07:08:06;8.10;;;3.83;;
9968;SDS011;5025;48.890;9.278;2024-01-25T07:10:33;13.87;;;4.10;;
9968;SDS011;5025;48.890;9.278;2024-01-25T07:12:59;8.67;;;3.80;;
9968;SDS011;5025;48.890;9.278;2024-01-25T07:15:24;9.57;;;3.53;;
9968;SDS011;5025;48.890;9.278;2024-01-25T07:17:50;8.13;;;3.00;;
9968;SDS011;5025;48.890;9.278;2024-01-25T07:20:15;8.17;;;3.70;;
9968;SDS011;5025;48.890;9.278;2024-01-25T07:22:40;7.50;;;3.30;;
9968;SDS011;5025;48.890;9.278;2024-01-25T07:25:06;8.17;;;3.37;;
9968;SDS011;5025;48.890;9.278;2024-01-25T07:27:31;6.27;;;2.80;;
9968;SDS011;5025;48.890;9.278;2024-01-25T07:29:56;7.90;;;3.20;;
9968;SDS011;5025;48.890;9.278;2024-01-25T07:32:22;8.43;;;3.60;;
9968;SDS011;5025;48.890;9.278;2024-01-25T07:34:49;10.17;;;3.60;;
9968;SDS011;5025;48.890;9.278;2024-01-25T07:37:14;6.17;;;2.80;;
9968;SDS011;5025;48.890;9.278;2024-01-25T07:39:40;8.40;;;3.30;;
9968;SDS011;5025;48.890;9.278;2024-01-25T07:42:06;10.67;;;3.43;;
9968;SDS011;5025;48.890;9.278;2024-01-25T07:44:31;14.33;;;4.90;;
9968;SDS011;5025;48.890;9.278;2024-01-25T07:46:56;12.33;;;4.53;;
9968;SDS011;5025;48.890;9.278;2024-01-25T07:49:21;12.57;;;4.30;;
9968;SDS011;5025;48.890;9.278;2024-01-25T07:51:47;14.40;;;4.23;;
9968;SDS011;5025;48.890;9.278;2024-01-25T07:54:12;7.40;;;4.03;;
9968;SDS011;5025;48.890;9.278;2024-01-25T07:56:39;14.93;;;4.47;;
9968;SDS011;5025;48.890;9.278;2024-01-25T07:59:04;17.00;;;4.27;;
9968;SDS011;5025;48.890;9.278;2024-01-25T08:01:29;13.87;;;4.07;;
9968;SDS011;5025;48.890;9.278;2024-01-25T08:03:55;12.50;;;3.80;;
9968;SDS011;5025;48.890;9.278;2024-01-25T08:06:20;10.93;;;4.17;;
9968;SDS011;5025;48.890;9.278;2024-01-25T08:08:46;7.00;;;3.33;;
9968;SDS011;5025;48.890;9.278;2024-01-25T08:11:11;9.60;;;3.47;;
9968;SDS011;5025;48.890;9.278;2024-01-25T08:13:36;9.40;;;3.40;;
9968;SDS011;5025;48.890;9.278;2024-01-25T08:16:01;6.60;;;3.73;;
9968;SDS011;5025;48.890;9.278;2024-01-25T08:18:27;8.53;;;4.30;;
9968;SDS011;5025;48.890;9.278;2024-01-25T08:20:54;6.03;;;3.33;;
9968;SDS011;5025;48.890;9.278;2024-01-25T08:23:20;8.07;;;3.67;;
9968;SDS011;5025;48.890;9.278;2024-01-25T08:25:46;9.43;;;3.67;;
9968;SDS011;5025;48.890;9.278;2024-01-25T08:28:11;6.63;;;3.07;;
9968;SDS011;5025;48.890;9.278;2024-01-25T08:30:37;9.07;;;3.57;;
9968;SDS011;5025;48.890;9.278;2024-01-25T08:33:02;7.17;;;3.30;;
9968;SDS011;5025;48.890;9.278;2024-01-25T08:35:28;9.00;;;3.87;;
9968;SDS011;5025;48.890;9.278;2024-01-25T08:37:55;7.67;;;3.27;;
9968;SDS011;5025;48.890;9.278;2024-01-25T08:40:20;7.13;;;3.50;;
9968;SDS011;5025;48.890;9.278;2024-01-25T08:42:45;9.37;;;3.27;;
9968;SDS011;5025;48.890;9.278;2024-01-25T08:45:11;9.23;;;3.40;;
9968;SDS011;5025;48.890;9.278;2024-01-25T08:47:36;12.13;;;4.30;;
9968;SDS011;5025;48.890;9.278;2024-01-25T08:50:01;9.03;;;3.67;;
9968;SDS011;5025;48.890;9.278;2024-01-25T08:52:27;8.43;;;4.33;;
9968;SDS011;5025;48.890;9.278;2024-01-25T08:54:52;10.63;;;4.70;;
9968;SDS011;5025;48.890;9.278;2024-01-25T08:57:17;8.63;;;4.50;;
9968;SDS011;5025;48.890;9.278;2024-01-25T08:59:42;9.93;;;4.90;;
9968;SDS011;5025;48.890;9.278;2024-01-25T09:02:08;10.23;;;4.30;;
9968;SDS011;5025;48.890;9.278;2024-01-25T09:04:33;9.90;;;4.30;;
9968;SDS011;5025;48.890;9.278;2024-01-25T09:06:59;10.20;;;4.43;;
9968;SDS011;5025;48.890;9.278;2024-01-25T09:09:24;11.73;;;4.77;;
9968;SDS011;5025;48.890;9.278;2024-01-25T09:11:49;15.10;;;4.20;;
9968;SDS011;5025;48.890;9.278;2024-01-25T09:14:15;9.93;;;4.03;;
9968;SDS011;5025;48.890;9.278;2024-01-25T09:16:40;10.13;;;3.73;;
9968;SDS011;5025;48.890;9.278;2024-01-25T09:19:05;9.73;;;3.43;;
9968;SDS011;5025;48.890;9.278;2024-01-25T09:21:30;9.27;;;3.70;;
9968;SDS011;5025;48.890;9.278;2024-01-25T09:23:56;8.40;;;3.50;;
9968;SDS011;5025;48.890;9.278;2024-01-25T09:26:21;14.00;;;4.70;;
9968;SDS011;5025;48.890;9.278;2024-01-25T09:28:46;11.23;;;4.07;;
9968;SDS011;5025;48.890;9.278;2024-01-25T09:31:12;13.17;;;3.93;;
9968;SDS011;5025;48.890;9.278;2024-01-25T09:33:37;10.63;;;3.93;;
9968;SDS011;5025;48.890;9.278;2024-01-25T09:36:02;9.50;;;3.23;;
9968;SDS011;5025;48.890;9.278;2024-01-25T09:38:28;13.40;;;4.33;;
9968;SDS011;5025;48.890;9.278;2024-01-25T09:40:53;13.87;;;4.57;;
9968;SDS011;5025;48.890;9.278;2024-01-25T09:43:18;16.93;;;4.43;;
9968;SDS011;5025;48.890;9.278;2024-01-25T09:45:45;18.80;;;4.73;;
9968;SDS011;5025;48.890;9.278;2024-01-25T09:48:12;18.07;;;5.07;;
9968;SDS011;5025;48.890;9.278;2024-01-25T09:50:38;20.33;;;4.90;;
9968;SDS011;5025;48.890;9.278;2024-01-25T09:53:04;19.93;;;4.63;;
9968;SDS011;5025;48.890;9.278;2024-01-25T09:55:30;18.20;;;4.20;;
9968;SDS011;5025;48.890;9.278;2024-01-25T09:58:01;18.17;;;4.40;;
9968;SDS011;5025;48.890;9.278;2024-01-25T10:00:32;18.00;;;5.00;;
9968;SDS011;5025;48.890;9.278;2024-01-25T10:02:58;17.23;;;4.47;;
9968;SDS011;5025;48.890;9.278;2024-01-25T10:05:23;13.63;;;3.77;;
9968;SDS011;5025;48.890;9.278;2024-01-25T10:07:48;14.83;;;4.57;;
9968;SDS011;5025;48.890;9.278;2024-01-25T10:10:14;17.57;;;5.00;;
9968;SDS011;5025;48.890;9.278;2024-01-25T10:12:40;13.63;;;4.57;;
9968;SDS011;5025;48.890;9.278;2024-01-25T10:15:06;13.87;;;3.87;;
9968;SDS011;5025;48.890;9.278;2024-01-25T10:17:32;19.37;;;4.70;;
9968;SDS011;5025;48.890;9.278;2024-01-25T10:19:58;18.13;;;4.40;;
9968;SDS011;5025;48.890;9.278;2024-01-25T10:22:23;15.07;;;4.60;;
9968;SDS011;5025;48.890;9.278;2024-01-25T10:24:49;15.33;;;4.20;;
9968;SDS011;5025;48.890;9.278;2024-01-25T10:27:21;19.10;;;5.00;;
9968;SDS011;5025;48.890;9.278;2024-01-25T10:29:46;14.60;;;3.83;;
9968;SDS011;5025;48.890;9.278;2024-01-25T10:32:12;13.37;;;4.17;;
9968;SDS011;5025;48.890;9.278;2024-01-25T10:34:38;16.50;;;4.13;;
9968;SDS011;5025;48.890;9.278;2024-01-25T10:37:06;18.80;;;4.70;;
9968;SDS011;5025;48.890;9.278;2024-01-25T10:39:32;11.80;;;4.20;;
9968;SDS011;5025;48.890;9.278;2024-01-25T10:41:58;14.77;;;3.93;;
9968;SDS011;5025;48.890;9.278;2024-01-25T10:44:24;12.30;;;4.27;;
9968;SDS011;5025;48.890;9.278;2024-01-25T10:46:50;16.27;;;4.63;;
9968;SDS011;5025;48.890;9.278;2024-01-25T10:49:16;12.67;;;3.90;;
9968;SDS011;5025;48.890;9.278;2024-01-25T10:51:42;16.97;;;4.77;;
9968;SDS011;5025;48.890;9.278;2024-01-25T10:54:10;11.83;;;3.57;;
9968;SDS011;5025;48.890;9.278;2024-01-25T10:56:37;18.13;;;4.67;;
9968;SDS011;5025;48.890;9.278;2024-01-25T10:59:03;14.60;;;3.90;;
9968;SDS011;5025;48.890;9.278;2024-01-25T11:01:29;15.07;;;4.70;;
9968;SDS011;5025;48.890;9.278;2024-01-25T11:03:54;13.30;;;3.97;;
9968;SDS011;5025;48.890;9.278;2024-01-25T11:06:20;15.77;;;3.90;;
9968;SDS011;5025;48.890;9.278;2024-01-25T11:08:47;14.53;;;4.00;;
9968;SDS011;5025;48.890;9.278;2024-01-25T11:11:15;14.27;;;3.97;;
9968;SDS011;5025;48.890;9.278;2024-01-25T11:13:41;15.20;;;4.00;;
9968;SDS011;5025;48.890;9.278;2024-01-25T11:16:17;16.73;;;4.43;;
9968;SDS011;5025;48.890;9.278;2024-01-25T11:18:47;19.37;;;4.77;;
9968;SDS011;5025;48.890;9.278;2024-01-25T11:21:21;15.07;;;4.20;;
9968;SDS011;5025;48.890;9.278;2024-01-25T11:23:48;13.73;;;3.80;;
9968;SDS011;5025;48.890;9.278;2024-01-25T11:26:13;11.53;;;3.57;;
9968;SDS011;5025;48.890;9.278;2024-01-25T11:28:40;14.97;;;3.83;;
9968;SDS011;5025;48.890;9.278;2024-01-25T11:31:05;14.60;;;3.80;;
9968;SDS011;5025;48.890;9.278;2024-01-25T11:33:32;12.70;;;3.80;;
9968;SDS011;5025;48.890;9.278;2024-01-25T11:35:58;12.13;;;3.67;;
9968;SDS011;5025;48.890;9.278;2024-01-25T11:38:24;9.97;;;3.67;;
9968;SDS011;5025;48.890;9.278;2024-01-25T11:40:49;12.07;;;3.43;;
9968;SDS011;5025;48.890;9.278;2024-01-25T11:43:14;11.87;;;3.60;;
9968;SDS011;5025;48.890;9.278;2024-01-25T11:45:40;11.70;;;3.97;;
9968;SDS011;5025;48.890;9.278;2024-01-25T11:48:07;11.70;;;3.63;;
9968;SDS011;5025;48.890;9.278;2024-01-25T11:50:32;13.10;;;3.53;;
9968;SDS011;5025;48.890;9.278;2024-01-25T11:52:58;8.33;;;3.00;;
9968;SDS011;5025;48.890;9.278;2024-01-25T11:55:23;12.27;;;3.83;;
9968;SDS011;5025;48.890;9.278;2024-01-25T11:57:48;8.60;;;2.97;;
9968;SDS011;5025;48.890;9.278;2024-01-25T12:00:14;11.83;;;3.80;;
9968;SDS011;5025;48.890;9.278;2024-01-25T12:02:40;9.43;;;2.60;;
9968;SDS011;5025;48.890;9.278;2024-01-25T12:05:08;11.03;;;3.67;;
9968;SDS011;5025;48.890;9.278;2024-01-25T12:07:34;10.87;;;3.20;;
9968;SDS011;5025;48.890;9.278;2024-01-25T12:10:02;13.80;;;3.73;;
9968;SDS011;5025;48.890;9.278;2024-01-25T12:12:29;9.73;;;3.37;;
9968;SDS011;5025;48.890;9.278;2024-01-25T12:15:01;11.00;;;3.27;;
9968;SDS011;5025;48.890;9.278;2024-01-25T12:17:28;13.73;;;3.10;;
9968;SDS011;5025;48.890;9.278;2024-01-25T12:19:54;9.53;;;3.47;;
9968;SDS011;5025;48.890;9.278;2024-01-25T12:22:29;9.27;;;2.77;;
9968;SDS011;5025;48.890;9.278;2024-01-25T12:24:57;9.17;;;2.97;;
9968;SDS011;5025;48.890;9.278;2024-01-25T12:27:23;7.83;;;2.57;;
9968;SDS011;5025;48.890;9.278;2024-01-25T12:29:50;6.40;;;2.57;;
9968;SDS011;5025;48.890;9.278;2024-01-25T12:32:18;7.33;;;2.90;;
9968;SDS011;5025;48.890;9.278;2024-01-25T12:34:56;9.80;;;2.77;;
9968;SDS011;5025;48.890;9.278;2024-01-25T12:37:23;11.90;;;3.33;;
9968;SDS011;5025;48.890;9.278;2024-01-25T12:39:50;9.07;;;3.33;;
9968;SDS011;5025;48.890;9.278;2024-01-25T12:42:17;10.63;;;4.10;;
9968;SDS011;5025;48.890;9.278;2024-01-25T12:44:43;10.10;;;2.80;;
9968;SDS011;5025;48.890;9.278;2024-01-25T12:47:08;9.10;;;2.97;;
9968;SDS011;5025;48.890;9.278;2024-01-25T12:49:33;5.20;;;2.40;;
9968;SDS011;5025;48.890;9.278;2024-01-25T12:51:59;6.57;;;2.77;;
9968;SDS011;5025;48.890;9.278;2024-01-25T12:54:24;8.80;;;2.57;;
9968;SDS011;5025;48.890;9.278;2024-01-25T12:56:50;9.93;;;2.77;;
9968;SDS011;5025;48.890;9.278;2024-01-25T12:59:15;7.20;;;2.80;;
9968;SDS011;5025;48.890;9.278;2024-01-25T13:01:41;6.57;;;2.67;;
9968;SDS011;5025;48.890;9.278;2024-01-25T13:04:06;6.10;;;2.40;;
9968;SDS011;5025;48.890;9.278;2024-01-25T13:06:31;4.77;;;2.20;;
9968;SDS011;5025;48.890;9.278;2024-01-25T13:08:57;4.13;;;2.10;;
9968;SDS011;5025;48.890;9.278;2024-01-25T13:11:22;6.00;;;2.33;;
9968;SDS011;5025;48.890;9.278;2024-01-25T13:13:47;10.33;;;3.13;;
9968;SDS011;5025;48.890;9.278;2024-01-25T13:16:12;8.60;;;2.97;;
9968;SDS011;5025;48.890;9.278;2024-01-25T13:18:38;6.90;;;2.60;;
9968;SDS011;5025;48.890;9.278;2024-01-25T13:21:03;4.67;;;2.00;;
9968;SDS011;5025;48.890;9.278;2024-01-25T13:23:28;5.23;;;2.20;;
9968;SDS011;5025;48.890;9.278;2024-01-25T13:25:54;7.47;;;3.17;;
9968;SDS011;5025;48.890;9.278;2024-01-25T13:28:19;5.50;;;2.53;;
9968;SDS011;5025;48.890;9.278;2024-01-25T13:30:44;6.70;;;2.73;;
9968;SDS011;5025;48.890;9.278;2024-01-25T13:33:10;11.27;;;3.07;;
9968;SDS011;5025;48.890;9.278;2024-01-25T13:35:35;6.80;;;2.23;;
9968;SDS011;5025;48.890;9.278;2024-01-25T13:38:00;8.33;;;2.63;;
9968;SDS011;5025;48.890;9.278;2024-01-25T13:40:26;10.67;;;2.77;;
9968;SDS011;5025;48.890;9.278;2024-01-25T13:42:52;9.93;;;3.40;;
9968;SDS011;5025;48.890;9.278;2024-01-25T13:45:17;6.77;;;2.50;;
9968;SDS011;5025;48.890;9.278;2024-01-25T13:47:42;7.47;;;2.73;;
9968;SDS011;5025;48.890;9.278;2024-01-25T13:50:08;3.97;;;2.20;;
9968;SDS011;5025;48.890;9.278;2024-01-25T13:52:33;4.33;;;2.23;;
9968;SDS011;5025;48.890;9.278;2024-01-25T13:54:58;6.17;;;2.60;;
9968;SDS011;5025;48.890;9.278;2024-01-25T13:57:24;4.90;;;2.30;;
9968;SDS011;5025;48.890;9.278;2024-01-25T13:59:49;5.17;;;2.47;;
9968;SDS011;5025;48.890;9.278;2024-01-25T14:02:15;7.03;;;2.83;;
9968;SDS011;5025;48.890;9.278;2024-01-25T14:04:40;7.30;;;3.00;;
9968;SDS011;5025;48.890;9.278;2024-01-25T14:07:06;8.73;;;3.03;;
9968;SDS011;5025;48.890;9.278;2024-01-25T14:09:31;6.07;;;2.77;;
9968;SDS011;5025;48.890;9.278;2024-01-25T14:11:56;6.50;;;2.80;;
9968;SDS011;5025;48.890;9.278;2024-01-25T14:14:21;7.40;;;2.60;;
9968;SDS011;5025;48.890;9.278;2024-01-25T14:16:47;6.73;;;2.77;;
9968;SDS011;5025;48.890;9.278;2024-01-25T14:19:12;6.93;;;3.00;;
9968;SDS011;5025;48.890;9.278;2024-01-25T14:21:37;7.17;;;2.90;;
9968;SDS011;5025;48.890;9.278;2024-01-25T14:24:02;9.27;;;2.70;;
9968;SDS011;5025;48.890;9.278;2024-01-25T14:26:28;6.53;;;2.63;;
9968;SDS011;5025;48.890;9.278;2024-01-25T14:28:53;5.97;;;2.50;;
9968;SDS011;5025;48.890;9.278;2024-01-25T14:31:18;8.37;;;2.63;;
9968;SDS011;5025;48.890;9.278;2024-01-25T14:33:44;5.77;;;2.33;;
9968;SDS011;5025;48.890;9.278;2024-01-25T14:36:09;6.47;;;2.47;;
9968;SDS011;5025;48.890;9.278;2024-01-25T14:38:34;8.37;;;2.73;;
9968;SDS011;5025;48.890;9.278;2024-01-25T14:40:59;6.70;;;2.43;;
9968;SDS011;5025;48.890;9.278;2024-01-25T14:43:25;7.67;;;2.80;;
9968;SDS011;5025;48.890;9.278;2024-01-25T14:45:50;7.20;;;2.80;;
9968;SDS011;5025;48.890;9.278;2024-01-25T14:48:17;8.00;;;2.70;;
9968;SDS011;5025;48.890;9.278;2024-01-25T14:50:42;6.80;;;2.80;;
9968;SDS011;5025;48.890;9.278;2024-01-25T14:53:07;8.47;;;2.80;;
9968;SDS011;5025;48.890;9.278;2024-01-25T14:55:33;6.97;;;2.70;;